Terminal Aerodrome Forecast
Issued by NWS

Home | Current Version | Previous Version | Text Only | Print | Product List | Glossary On
Versions: 1 2 3 4 5 6 7 8 9 10 11 12 13 14 15
103
FTUS45 KABQ 240520
TAFTCC
TAF
KTCC 240520Z 2406/2506 03008KT P6SM SCT040 SCT250
     FM240900 34006KT P6SM SCT050 SCT250
     FM241800 01008KT P6SM SCT250
     FM242100 24006KT P6SM SCT250=

USA.gov is the U.S. government's official web portal to all federal, state and local government web resources and services.